Time;durP1;ratioP1;P1;durP2;ratioP2;P2;SDS_P1;SDS_P2;PMS_P1;PMS_P2;Temp;Humidity;BMP_temperature;BMP_pressure;BME280_temperature;BME280_humidity;BME280_pressure;Samples;Min_cycle;Max_cycle;Signal;HPM_P1;HPM_P2
2023/08/17 00:02:04;;;;;;;4.75;2.50;;;;;;;17.48;75.66;101805.06;5046008;28;20224;-75
2023/08/17 00:04:29;;;;;;;5.05;2.30;;;;;;;17.44;75.92;101804.66;5051247;28;20438;-74
2023/08/17 00:06:55;;;;;;;7.95;2.67;;;;;;;17.35;76.58;101806.81;5050935;28;20040;-74
2023/08/17 00:09:20;;;;;;;6.38;2.65;;;;;;;17.31;76.77;101805.59;5051381;28;20392;-75
2023/08/17 00:11:46;;;;;;;4.40;2.33;;;;;;;17.31;77.01;101802.03;5052653;28;20044;-75
2023/08/17 00:14:12;;;;;;;3.65;2.70;;;;;;;17.22;77.63;101796.84;5051570;28;20033;-75
2023/08/17 00:16:38;;;;;;;3.85;2.90;;;;;;;17.17;77.86;101806.72;5050722;28;20048;-76
2023/08/17 00:19:03;;;;;;;3.85;2.40;;;;;;;17.08;78.57;101806.13;5051563;28;20025;-75
2023/08/17 00:21:28;;;;;;;4.43;2.53;;;;;;;17.02;78.83;101805.13;5050261;28;20086;-75
2023/08/17 00:23:54;;;;;;;3.97;2.60;;;;;;;16.99;79.18;101804.72;5052360;28;20027;-75
2023/08/17 00:26:22;;;;;;;6.65;2.65;;;;;;;16.91;79.75;101811.22;5051042;28;20029;-74
2023/08/17 00:28:47;;;;;;;5.15;2.55;;;;;;;16.87;80.04;101801.81;5045703;28;20115;-74
2023/08/17 00:31:13;;;;;;;4.10;2.60;;;;;;;16.81;80.30;101795.38;5052481;28;20036;-75
2023/08/17 00:33:38;;;;;;;4.82;2.67;;;;;;;16.71;80.99;101790.38;5053190;28;20055;-75
2023/08/17 00:36:04;;;;;;;5.03;2.75;;;;;;;16.68;81.11;101796.25;5052124;28;20036;-74
2023/08/17 00:38:29;;;;;;;4.28;2.28;;;;;;;16.63;81.26;101791.47;5052518;28;20041;-74
2023/08/17 00:40:55;;;;;;;4.97;2.60;;;;;;;16.65;81.02;101805.69;5053552;28;20025;-75
2023/08/17 00:43:20;;;;;;;5.53;2.58;;;;;;;16.62;81.51;101810.69;5051681;28;20045;-74
2023/08/17 00:45:46;;;;;;;4.78;2.60;;;;;;;16.65;81.11;101810.25;5050097;28;20064;-74
2023/08/17 00:48:11;;;;;;;4.78;2.58;;;;;;;16.69;80.98;101814.22;5051129;28;20393;-74
2023/08/17 00:50:37;;;;;;;3.90;2.50;;;;;;;16.71;81.03;101812.13;5028358;28;20029;-74
2023/08/17 00:53:02;;;;;;;3.45;2.50;;;;;;;16.73;81.07;101810.03;5050860;28;20070;-74
2023/08/17 00:55:28;;;;;;;4.80;2.38;;;;;;;16.79;80.73;101803.72;5048519;28;20901;-74
2023/08/17 00:57:53;;;;;;;7.50;2.70;;;;;;;16.80;80.49;101804.56;5051775;28;20028;-74
2023/08/17 01:00:22;;;;;;;5.07;3.03;;;;;;;16.79;80.62;101811.88;5050819;28;20115;-74
2023/08/17 01:02:47;;;;;;;3.33;2.40;;;;;;;16.79;80.59;101798.28;5051501;28;20031;-74
2023/08/17 01:05:12;;;;;;;5.57;2.60;;;;;;;16.83;80.16;101799.53;5032083;28;20025;-74
2023/08/17 01:07:38;;;;;;;4.25;2.45;;;;;;;16.87;80.08;101799.09;5047428;28;20477;-74
2023/08/17 01:10:04;;;;;;;5.40;2.72;;;;;;;16.84;80.35;101803.09;5053406;28;20025;-74
2023/08/17 01:12:31;;;;;;;4.10;2.22;;;;;;;16.80;80.24;101805.38;5049924;28;20503;-74
2023/08/17 01:15:09;;;;;;;5.22;2.42;;;;;;;16.82;80.12;101803.28;5055354;28;20028;-75
2023/08/17 01:17:58;;;;;;;3.00;2.38;;;;;;;16.84;80.19;101803.09;5052437;28;20033;-75
2023/08/17 01:20:24;;;;;;;5.35;2.63;;;;;;;16.82;80.65;101810.63;5044657;28;20037;-75
2023/08/17 01:22:50;;;;;;;6.82;2.80;;;;;;;16.82;80.46;101808.72;5032332;28;20030;-75
2023/08/17 01:25:15;;;;;;;4.93;2.60;;;;;;;16.80;80.47;101802.66;5046180;28;20028;-75
2023/08/17 01:27:43;;;;;;;3.90;2.70;;;;;;;16.78;80.72;101799.31;5052259;28;20052;-75
2023/08/17 01:30:09;;;;;;;5.97;2.63;;;;;;;16.75;80.52;101804.38;5052593;28;20107;-75
2023/08/17 01:32:43;;;;;;;6.13;2.85;;;;;;;16.75;80.63;101801.66;5033931;28;20536;-75
2023/08/17 01:35:35;;;;;;;4.68;2.85;;;;;;;16.71;80.94;101806.69;5047951;28;20037;-75
2023/08/17 01:38:03;;;;;;;6.80;2.63;;;;;;;16.71;81.13;101814.84;5047853;28;20090;-74
2023/08/17 01:40:29;;;;;;;5.25;3.13;;;;;;;16.70;81.06;101815.03;5046925;28;20028;-75
2023/08/17 01:42:54;;;;;;;3.55;2.58;;;;;;;16.69;81.24;101814.22;5024187;28;20369;-75
2023/08/17 01:45:20;;;;;;;7.30;2.53;;;;;;;16.63;81.21;101809.63;5044047;28;20094;-76
2023/08/17 01:47:45;;;;;;;4.25;2.70;;;;;;;16.64;81.48;101816.75;5030633;28;20086;-75
2023/08/17 01:50:11;;;;;;;6.15;2.40;;;;;;;16.67;80.82;101813.59;5051039;28;20021;-75
2023/08/17 01:52:36;;;;;;;4.82;2.45;;;;;;;16.66;80.61;101814.66;5049701;28;20056;-75
2023/08/17 01:55:02;;;;;;;4.15;2.30;;;;;;;16.69;80.57;101814.22;5050260;28;20021;-75
2023/08/17 01:57:27;;;;;;;4.82;2.20;;;;;;;16.65;81.41;101813.84;5046942;28;20041;-74
2023/08/17 01:59:53;;;;;;;4.03;2.63;;;;;;;16.65;81.81;101818.41;5049965;28;20021;-75
2023/08/17 02:02:18;;;;;;;6.50;2.70;;;;;;;16.60;83.46;101815.50;5050403;28;20037;-75
2023/08/17 02:04:44;;;;;;;7.18;2.67;;;;;;;16.60;84.23;101816.34;5049555;28;20021;-75
2023/08/17 02:07:09;;;;;;;5.20;2.65;;;;;;;16.56;85.99;101814.28;5049739;28;20558;-75
2023/08/17 02:09:35;;;;;;;4.45;2.90;;;;;;;16.46;87.14;101809.28;5049710;28;20029;-75
2023/08/17 02:12:00;;;;;;;4.85;2.78;;;;;;;16.32;87.85;101809.31;5050402;28;20603;-75
2023/08/17 02:14:26;;;;;;;4.15;2.72;;;;;;;16.24;89.51;101812.25;5048814;28;20025;-75
2023/08/17 02:16:52;;;;;;;4.55;2.60;;;;;;;16.16;89.58;101807.88;5046436;28;20432;-76
2023/08/17 02:19:17;;;;;;;4.93;3.00;;;;;;;16.15;90.81;101794.50;5050300;28;20045;-76
2023/08/17 02:21:43;;;;;;;3.40;2.53;;;;;;;16.11;90.71;101791.34;5049797;28;20025;-76
2023/08/17 02:24:08;;;;;;;7.00;2.83;;;;;;;16.09;91.13;101787.19;5049485;28;20029;-76
2023/08/17 02:26:33;;;;;;;5.03;2.95;;;;;;;16.09;91.27;101796.16;5050507;28;20648;-76
2023/08/17 02:28:59;;;;;;;4.93;3.40;;;;;;;15.99;92.49;101779.47;5049360;28;20232;-76
2023/08/17 02:31:24;;;;;;;4.88;3.08;;;;;;;15.97;93.31;101776.97;5049221;28;20068;-76
2023/08/17 02:33:49;;;;;;;4.28;3.05;;;;;;;15.90;94.07;101771.53;5051227;28;20025;-77
2023/08/17 02:36:15;;;;;;;4.20;3.30;;;;;;;15.90;94.58;101774.25;5041814;28;20029;-75
2023/08/17 02:38:40;;;;;;;3.78;2.95;;;;;;;15.89;94.27;101769.84;5049330;28;20373;-76
2023/08/17 02:41:06;;;;;;;5.43;3.30;;;;;;;15.87;94.92;101765.69;5048483;28;20086;-76
2023/08/17 02:43:31;;;;;;;7.75;3.42;;;;;;;15.82;95.36;101754.59;5048411;28;20071;-76
2023/08/17 02:45:57;;;;;;;4.80;3.20;;;;;;;15.75;95.61;101754.59;5046471;28;20481;-76
2023/08/17 02:48:23;;;;;;;7.40;3.40;;;;;;;15.77;95.60;101747.06;5049121;28;20362;-76
2023/08/17 02:50:48;;;;;;;6.22;3.70;;;;;;;15.78;95.75;101740.59;5049167;28;20021;-76
2023/08/17 02:53:13;;;;;;;4.93;3.33;;;;;;;15.77;95.72;101741.66;5047977;28;20367;-76
2023/08/17 02:55:39;;;;;;;5.72;3.17;;;;;;;15.69;95.18;101745.41;5047697;28;20033;-76
2023/08/17 02:58:04;;;;;;;6.20;3.55;;;;;;;15.63;95.76;101739.97;5048596;28;20009;-75
2023/08/17 03:00:30;;;;;;;4.80;3.30;;;;;;;15.58;96.05;101733.28;5049003;28;20048;-76
2023/08/17 03:02:55;;;;;;;5.65;3.40;;;;;;;15.55;96.11;101736.41;5050847;28;20021;-76
2023/08/17 03:05:20;;;;;;;5.07;3.28;;;;;;;15.56;96.99;101740.81;5048277;28;20024;-76
2023/08/17 03:07:46;;;;;;;7.13;3.58;;;;;;;15.53;96.92;101732.25;5047468;28;20081;-76
2023/08/17 03:10:11;;;;;;;7.18;3.60;;;;;;;15.52;97.11;101730.59;5047555;28;20113;-77
2023/08/17 03:12:38;;;;;;;5.32;3.38;;;;;;;15.53;96.87;101734.97;5048025;28;20420;-76
2023/08/17 03:15:05;;;;;;;6.45;3.55;;;;;;;15.51;96.71;101727.06;5047350;28;20012;-77
2023/08/17 03:17:30;;;;;;;7.18;3.63;;;;;;;15.48;97.04;101729.31;5051381;28;20035;-76
2023/08/17 03:19:59;;;;;;;5.75;3.22;;;;;;;15.50;96.57;101730.81;5048826;28;20376;-76
2023/08/17 03:22:24;;;;;;;8.00;3.42;;;;;;;15.51;96.43;101727.06;5049676;28;20037;-76
2023/08/17 03:24:50;;;;;;;4.90;3.60;;;;;;;15.49;96.70;101718.28;5048546;28;20049;-76
2023/08/17 03:27:15;;;;;;;7.03;3.28;;;;;;;15.44;97.14;101716.16;5049417;28;20040;-76
2023/08/17 03:29:40;;;;;;;6.80;3.25;;;;;;;15.47;97.29;101720.38;5050317;28;20029;-76
2023/08/17 03:32:06;;;;;;;7.25;3.05;;;;;;;15.43;97.12;101724.53;5050465;28;20025;-76
2023/08/17 03:34:31;;;;;;;5.63;3.50;;;;;;;15.41;97.05;101711.19;5048042;28;20465;-76
2023/08/17 03:36:56;;;;;;;7.18;3.58;;;;;;;15.41;97.14;101704.91;5049033;28;20036;-76
2023/08/17 03:39:22;;;;;;;8.02;4.10;;;;;;;15.40;97.30;101714.94;5049430;28;20448;-76
2023/08/17 03:41:47;;;;;;;6.93;3.88;;;;;;;15.42;97.25;101722.84;5048310;28;20071;-76
2023/08/17 03:44:15;;;;;;;4.72;3.75;;;;;;;15.44;97.18;101715.34;5048243;28;20067;-76
2023/08/17 03:46:40;;;;;;;6.80;3.63;;;;;;;15.40;97.10;101719.50;5049275;28;20044;-76
2023/08/17 03:49:06;;;;;;;5.28;3.45;;;;;;;15.42;97.09;101722.84;5046195;28;20029;-76
2023/08/17 03:51:31;;;;;;;7.75;3.92;;;;;;;15.41;97.97;101729.31;5046876;28;20024;-76
2023/08/17 03:53:57;;;;;;;7.47;3.50;;;;;;;15.42;97.10;101733.72;5048658;28;20040;-76
2023/08/17 03:56:22;;;;;;;6.15;3.40;;;;;;;15.36;97.23;101729.09;5048440;28;20036;-76
2023/08/17 03:58:47;;;;;;;3.97;3.45;;;;;;;15.35;97.40;101728.28;5049039;28;20112;-76
2023/08/17 04:01:13;;;;;;;8.35;3.60;;;;;;;15.34;97.48;101734.75;5048641;28;20029;-76
2023/08/17 04:03:39;;;;;;;7.50;3.40;;;;;;;15.28;97.57;101733.69;5044889;28;20073;-76
2023/08/17 04:06:06;;;;;;;4.57;3.35;;;;;;;15.28;97.34;101732.84;5048028;28;20537;-74
2023/08/17 04:08:31;;;;;;;4.05;3.38;;;;;;;15.27;97.86;101744.75;5048195;28;20052;-74
2023/08/17 04:10:57;;;;;;;5.40;3.50;;;;;;;15.25;97.61;101744.97;5049098;28;20021;-74
2023/08/17 04:13:22;;;;;;;4.88;3.50;;;;;;;15.30;97.08;101745.19;5049864;28;20021;-75
2023/08/17 04:15:47;;;;;;;8.85;3.72;;;;;;;15.28;97.25;101747.28;5044901;28;20044;-74
2023/08/17 04:18:13;;;;;;;7.20;3.67;;;;;;;15.28;96.75;101754.56;5046979;28;20033;-74
2023/08/17 04:20:38;;;;;;;6.55;3.92;;;;;;;15.27;96.86;101752.88;5048415;28;20025;-74
2023/08/17 04:23:04;;;;;;;5.53;3.67;;;;;;;15.23;97.11;101752.47;5049155;28;20048;-74
2023/08/17 04:25:29;;;;;;;5.90;3.55;;;;;;;15.26;97.27;101746.63;5045345;28;20029;-74
2023/08/17 04:27:54;;;;;;;6.97;3.38;;;;;;;15.22;97.56;101749.97;5045543;28;20036;-74
2023/08/17 04:30:20;;;;;;;10.13;4.15;;;;;;;15.23;96.95;101747.03;5047565;28;20405;-75
2023/08/17 04:32:51;;;;;;;7.25;3.90;;;;;;;15.24;96.62;101747.91;5048686;28;20439;-74
2023/08/17 04:35:17;;;;;;;6.53;3.60;;;;;;;15.24;96.28;101746.00;5047907;28;20037;-74
2023/08/17 04:37:42;;;;;;;5.75;3.47;;;;;;;15.23;96.46;101752.47;5048014;28;20377;-75
2023/08/17 04:40:09;;;;;;;6.03;3.40;;;;;;;15.22;96.88;101767.06;5050244;28;20106;-74
2023/08/17 04:42:35;;;;;;;6.65;3.40;;;;;;;15.21;97.10;101757.25;5050847;28;20040;-74
2023/08/17 04:45:01;;;;;;;6.80;3.50;;;;;;;15.19;97.13;101751.19;5049651;28;20025;-75
2023/08/17 04:47:26;;;;;;;4.78;3.30;;;;;;;15.16;97.51;101746.22;5051363;28;20080;-75
2023/08/17 04:49:51;;;;;;;4.70;3.28;;;;;;;15.18;96.50;101740.56;5052339;28;20028;-75
2023/08/17 04:52:17;;;;;;;4.65;3.38;;;;;;;15.18;97.21;101754.94;5052927;28;20037;-74
2023/08/17 04:54:42;;;;;;;4.45;3.00;;;;;;;15.19;96.99;101751.19;5059054;28;20017;-74
2023/08/17 04:57:08;;;;;;;8.52;3.45;;;;;;;15.25;96.54;101739.53;5056051;28;20033;-75
2023/08/17 04:59:33;;;;;;;6.10;3.22;;;;;;;15.25;96.19;101747.69;5053902;28;20070;-75
2023/08/17 05:01:58;;;;;;;5.25;3.20;;;;;;;15.26;96.09;101745.81;5049094;28;20345;-75
2023/08/17 05:04:24;;;;;;;6.38;3.13;;;;;;;15.28;96.06;101741.84;5047070;28;20133;-75
2023/08/17 05:06:49;;;;;;;5.60;3.30;;;;;;;15.31;95.66;101744.16;5048927;28;20025;-75
2023/08/17 05:09:17;;;;;;;6.97;3.10;;;;;;;15.34;95.95;101744.78;5050536;28;20027;-75
2023/08/17 05:11:42;;;;;;;3.30;3.00;;;;;;;15.30;95.02;101744.34;5052690;28;20033;-75
2023/08/17 05:14:08;;;;;;;5.57;3.22;;;;;;;15.35;95.78;101744.56;5049797;28;20052;-75
2023/08/17 05:16:33;;;;;;;4.88;3.00;;;;;;;15.36;95.09;101745.38;5051914;28;20095;-75
2023/08/17 05:18:59;;;;;;;5.78;3.30;;;;;;;15.35;94.91;101749.16;5051464;28;20041;-75
2023/08/17 05:21:27;;;;;;;5.55;3.50;;;;;;;15.38;94.82;101751.44;5049479;28;20033;-75
2023/08/17 05:23:52;;;;;;;6.35;3.83;;;;;;;15.44;94.47;101746.00;5048681;28;20017;-77
2023/08/17 05:26:18;;;;;;;6.22;3.03;;;;;;;15.53;93.48;101757.50;5052005;28;20045;-77
2023/08/17 05:28:44;;;;;;;8.48;3.30;;;;;;;15.55;94.51;101758.13;5051962;28;20083;-79
2023/08/17 05:31:19;;;;;;;6.50;3.20;;;;;;;15.67;93.91;101755.63;5045788;28;20101;-81
2023/08/17 05:33:46;;;;;;;6.97;3.35;;;;;;;15.79;93.53;101750.41;5049795;28;20043;-82
2023/08/17 05:36:13;;;;;;;6.57;3.20;;;;;;;15.85;92.73;101760.47;5042862;28;20036;-79
2023/08/17 05:38:38;;;;;;;5.55;3.13;;;;;;;15.96;91.50;101750.00;5049822;28;20029;-82
2023/08/17 05:41:04;;;;;;;6.43;2.92;;;;;;;16.00;92.03;101760.22;5047239;28;20434;-78
2023/08/17 05:43:29;;;;;;;7.97;3.13;;;;;;;16.23;90.46;101756.22;5051081;28;20032;-77
2023/08/17 05:45:57;;;;;;;6.45;3.25;;;;;;;16.25;89.85;101758.72;5050632;28;20510;-77
2023/08/17 05:48:22;;;;;;;6.32;3.40;;;;;;;16.39;89.08;101757.66;5050668;28;20033;-77
2023/08/17 05:50:48;;;;;;;5.30;2.47;;;;;;;16.52;88.57;101763.06;5040900;28;20032;-77
2023/08/17 05:53:13;;;;;;;5.10;3.03;;;;;;;16.62;87.60;101764.47;5042861;28;20036;-84
2023/08/17 05:55:38;;;;;;;5.75;3.35;;;;;;;16.66;86.41;101755.69;5043160;28;20430;-77
2023/08/17 05:58:07;;;;;;;5.43;2.72;;;;;;;16.79;86.06;101760.22;5046642;28;20457;-77
2023/08/17 06:00:33;;;;;;;5.30;2.85;;;;;;;16.91;86.56;101763.09;5045083;28;20045;-77
2023/08/17 06:03:01;;;;;;;7.22;3.25;;;;;;;17.10;85.29;101766.81;5041580;28;20414;-76
2023/08/17 06:05:28;;;;;;;5.28;3.00;;;;;;;17.25;83.07;101762.94;5048325;28;20021;-77
2023/08/17 06:07:54;;;;;;;5.47;2.80;;;;;;;17.46;83.56;101764.47;5045725;28;20461;-76
2023/08/17 06:10:20;;;;;;;3.75;2.78;;;;;;;17.56;81.69;101758.53;5045577;28;20059;-77
2023/08/17 06:12:45;;;;;;;8.10;2.85;;;;;;;17.62;81.63;101763.09;5045786;28;20500;-77
2023/08/17 06:15:11;;;;;;;4.00;2.58;;;;;;;17.62;82.79;101762.25;5047821;28;20033;-78
2023/08/17 06:17:36;;;;;;;8.30;3.28;;;;;;;17.75;80.14;101764.03;5044388;28;20488;-77
2023/08/17 06:20:05;;;;;;;6.18;2.90;;;;;;;17.70;81.44;101773.69;5048963;28;20108;-77
2023/08/17 06:22:30;;;;;;;5.13;3.00;;;;;;;17.61;81.21;101768.75;5046362;28;20032;-77
2023/08/17 06:24:55;;;;;;;5.93;3.10;;;;;;;17.22;82.23;101774.25;5056024;22;20118;-77
2023/08/17 06:27:21;;;;;;;6.85;3.22;;;;;;;17.32;82.25;101769.16;5046501;28;20382;-77
2023/08/17 06:29:48;;;;;;;4.90;2.97;;;;;;;17.11;83.41;101779.34;5045737;28;20109;-78
2023/08/17 06:32:13;;;;;;;7.25;2.88;;;;;;;16.99;83.79;101780.25;5050111;28;20048;-77
2023/08/17 06:34:38;;;;;;;3.88;2.90;;;;;;;16.89;84.56;101786.13;5047078;28;20028;-78
2023/08/17 06:37:04;;;;;;;5.97;3.00;;;;;;;16.86;84.33;101786.56;5044677;28;20093;-77
2023/08/17 06:39:30;;;;;;;7.43;3.13;;;;;;;16.80;85.72;101786.34;5048716;28;20500;-77
2023/08/17 06:41:55;;;;;;;6.13;3.00;;;;;;;16.87;84.82;101782.78;5045861;28;20036;-76
2023/08/17 06:44:21;;;;;;;4.47;2.95;;;;;;;16.85;85.14;101779.44;5043261;28;20037;-78
2023/08/17 06:46:46;;;;;;;4.80;3.08;;;;;;;16.94;85.51;101786.31;5050069;28;20037;-78
2023/08/17 06:49:12;;;;;;;6.65;2.95;;;;;;;16.93;84.79;101787.38;5048146;28;20121;-78
2023/08/17 06:51:38;;;;;;;7.85;2.95;;;;;;;16.95;84.91;101779.81;5045742;28;20037;-77
2023/08/17 06:54:04;;;;;;;5.57;2.83;;;;;;;16.97;86.01;101783.16;5048049;28;20024;-77
2023/08/17 06:56:30;;;;;;;5.07;3.00;;;;;;;16.97;85.32;101794.91;5048520;28;20487;-79
2023/08/17 06:59:27;;;;;;;5.45;2.80;;;;;;;16.92;85.70;101786.50;5048399;28;20028;-86
2023/08/17 07:01:53;;;;;;;6.13;3.00;;;;;;;16.83;85.97;101787.81;5040661;28;20469;-78
2023/08/17 07:04:21;;;;;;;6.22;3.05;;;;;;;16.84;86.35;101792.22;5049257;28;20052;-78
2023/08/17 07:06:46;;;;;;;5.85;3.05;;;;;;;16.82;86.67;101789.69;5045701;28;20033;-78
2023/08/17 07:09:13;;;;;;;5.72;3.20;;;;;;;16.92;85.62;101791.13;5047799;28;20052;-79
2023/08/17 07:11:39;;;;;;;3.92;3.10;;;;;;;16.85;85.94;101798.47;5045750;28;20045;-78
2023/08/17 07:14:07;;;;;;;6.40;2.90;;;;;;;16.86;85.35;101790.09;5047877;28;20390;-78
2023/08/17 07:16:32;;;;;;;4.30;3.03;;;;;;;16.94;86.91;101794.47;5049017;28;20052;-78
2023/08/17 07:18:58;;;;;;;6.38;3.38;;;;;;;16.96;86.52;101798.66;5047704;28;20041;-78
2023/08/17 07:21:25;;;;;;;6.47;2.88;;;;;;;17.05;86.06;101801.13;5044097;28;20135;-78
2023/08/17 07:23:50;;;;;;;6.30;3.40;;;;;;;16.99;85.53;101813.72;5048865;28;20378;-77
2023/08/17 07:26:18;;;;;;;5.55;3.35;;;;;;;17.02;85.41;101807.84;5047964;28;20519;-78
2023/08/17 07:31:14;;;;;;;8.00;3.10;;;;;;;17.09;85.08;101814.09;5005878;28;20506;-77
2023/08/17 07:33:40;;;;;;;4.25;3.08;;;;;;;16.97;84.87;101816.66;5008376;28;20034;-78
2023/08/17 07:36:05;;;;;;;5.90;3.30;;;;;;;16.94;85.52;101810.78;5007703;28;20041;-75
2023/08/17 07:38:32;;;;;;;6.85;3.33;;;;;;;16.90;85.62;101815.00;5009468;28;20073;-75
2023/08/17 07:40:57;;;;;;;5.75;3.75;;;;;;;16.96;85.63;101820.44;5006295;28;20385;-76
2023/08/17 07:43:23;;;;;;;6.38;3.17;;;;;;;17.05;86.07;101823.75;5007180;28;20474;-75
2023/08/17 07:45:57;;;;;;;6.70;3.40;;;;;;;17.10;85.03;101826.66;5009899;28;20084;-75
2023/08/17 07:48:26;;;;;;;6.40;3.05;;;;;;;17.16;84.70;101818.66;5007390;28;20567;-76
2023/08/17 07:50:52;;;;;;;7.05;3.38;;;;;;;17.19;84.66;101821.78;5005264;28;20125;-74
2023/08/17 07:53:21;;;;;;;4.63;3.20;;;;;;;17.25;83.90;101820.91;5007935;28;20379;-74
2023/08/17 07:55:46;;;;;;;6.35;2.90;;;;;;;17.23;84.71;101816.75;5007287;28;20084;-74
2023/08/17 07:58:11;;;;;;;6.97;3.30;;;;;;;17.18;84.01;101822.84;5006301;28;20033;-74
2023/08/17 08:00:37;;;;;;;4.03;3.08;;;;;;;17.20;83.54;101825.34;5009362;28;20425;-75
2023/08/17 08:03:03;;;;;;;4.28;3.10;;;;;;;17.24;84.14;101826.56;5008117;28;20080;-75
2023/08/17 08:05:28;;;;;;;9.45;3.35;;;;;;;17.22;83.79;101817.78;4990263;28;20049;-75
2023/08/17 08:07:54;;;;;;;7.70;3.50;;;;;;;17.24;84.25;101829.28;5009722;28;20032;-74
2023/08/17 08:10:19;;;;;;;4.18;3.08;;;;;;;17.28;84.72;101834.06;5007511;28;20100;-75
2023/08/17 08:12:44;;;;;;;6.30;3.22;;;;;;;17.27;83.74;101826.16;5007950;28;20112;-75
2023/08/17 08:15:10;;;;;;;8.32;3.95;;;;;;;17.26;84.51;101824.47;5010931;28;20470;-75
2023/08/17 08:17:35;;;;;;;9.35;3.38;;;;;;;17.30;84.05;101822.97;5012221;28;20470;-75
2023/08/17 08:20:01;;;;;;;7.63;3.22;;;;;;;17.31;83.60;101816.47;5011540;28;20493;-76
2023/08/17 08:22:27;;;;;;;6.47;3.55;;;;;;;17.31;83.17;101816.47;5012056;28;20613;-75
2023/08/17 08:24:52;;;;;;;4.65;3.15;;;;;;;17.30;83.66;101819.41;5011785;28;20029;-75
2023/08/17 08:27:17;;;;;;;8.20;3.40;;;;;;;17.36;83.47;101821.28;5012151;28;20014;-75
2023/08/17 08:29:43;;;;;;;5.47;3.40;;;;;;;17.34;83.20;101820.66;5011410;28;20390;-75
2023/08/17 08:32:08;;;;;;;5.32;3.40;;;;;;;17.37;83.57;101826.50;5012093;28;20105;-75
2023/08/17 08:34:33;;;;;;;8.05;3.80;;;;;;;17.30;83.60;101824.88;5011867;28;20014;-75
2023/08/17 08:36:59;;;;;;;6.40;3.58;;;;;;;17.40;83.60;101831.50;5011403;28;20451;-75
2023/08/17 08:39:27;;;;;;;4.82;3.47;;;;;;;17.48;83.20;101830.41;5011692;28;20022;-75
2023/08/17 08:41:53;;;;;;;8.05;3.85;;;;;;;17.48;83.76;101818.66;5011787;28;20033;-75
2023/08/17 08:44:21;;;;;;;6.07;3.95;;;;;;;17.45;82.93;101836.28;5011331;28;20022;-75
2023/08/17 08:46:47;;;;;;;5.65;3.67;;;;;;;17.41;82.54;101835.91;5012335;28;20034;-75
2023/08/17 08:49:12;;;;;;;6.30;3.60;;;;;;;17.45;83.35;101830.03;4968836;28;20034;-75
2023/08/17 08:51:42;;;;;;;4.70;3.80;;;;;;;17.49;83.83;101829.34;5011710;28;20033;-75
2023/08/17 08:54:09;;;;;;;7.55;3.80;;;;;;;17.47;83.10;101825.19;4994198;28;20339;-74
2023/08/17 08:56:35;;;;;;;6.72;4.03;;;;;;;17.39;83.45;101829.84;5012587;28;20056;-73
2023/08/17 08:59:01;;;;;;;7.13;4.45;;;;;;;17.38;83.75;101828.16;5015393;28;20478;-74
2023/08/17 09:01:27;;;;;;;6.03;4.13;;;;;;;17.28;83.26;101828.63;5013360;28;20029;-75
2023/08/17 09:03:52;;;;;;;7.07;4.18;;;;;;;17.29;83.88;101815.88;4999958;28;20366;-74
2023/08/17 09:06:18;;;;;;;9.75;4.60;;;;;;;17.30;83.82;101819.41;4992596;28;20030;-74
2023/08/17 09:08:43;;;;;;;7.05;4.20;;;;;;;17.41;83.75;101814.13;5010538;28;20405;-74
2023/08/17 09:11:08;;;;;;;8.43;4.03;;;;;;;17.60;82.97;101819.66;4978491;28;20042;-74
2023/08/17 09:13:34;;;;;;;8.48;3.97;;;;;;;17.79;82.26;101830.63;5010130;28;20053;-74
2023/08/17 09:16:02;;;;;;;6.05;4.20;;;;;;;17.87;81.72;101825.72;4993833;28;20046;-75
2023/08/17 09:18:27;;;;;;;5.50;3.95;;;;;;;18.07;81.91;101835.66;5008350;28;20030;-75
2023/08/17 09:20:53;;;;;;;9.20;4.00;;;;;;;18.20;81.91;101834.69;4992211;28;20025;-75
2023/08/17 09:23:21;;;;;;;6.85;4.18;;;;;;;18.18;80.81;101820.44;4985205;28;20044;-76
2023/08/17 09:25:48;;;;;;;5.82;4.20;;;;;;;18.41;80.30;101821.69;5008161;28;20037;-75
2023/08/17 09:28:15;;;;;;;6.60;4.45;;;;;;;18.42;80.28;101826.09;5011139;28;20045;-75
2023/08/17 09:30:51;;;;;;;6.60;4.13;;;;;;;18.57;79.39;101812.91;5011060;28;20077;-74
2023/08/17 09:33:16;;;;;;;10.13;4.93;;;;;;;18.53;78.70;101817.19;5007452;28;20034;-76
2023/08/17 09:35:42;;;;;;;6.68;4.63;;;;;;;18.24;80.20;101816.81;5009886;28;20029;-73
2023/08/17 09:38:07;;;;;;;8.63;4.32;;;;;;;18.38;80.80;101814.81;5009399;28;20208;-75
2023/08/17 09:40:33;;;;;;;8.32;4.88;;;;;;;18.49;79.94;101810.50;5010035;28;20037;-73
2023/08/17 09:42:58;;;;;;;6.65;4.63;;;;;;;18.53;79.41;101814.44;5008281;28;20466;-75
2023/08/17 09:45:24;;;;;;;9.77;5.22;;;;;;;18.32;80.42;101819.28;4973308;28;20034;-75
2023/08/17 09:47:49;;;;;;;7.03;5.00;;;;;;;18.33;80.27;101811.91;5006921;28;20068;-75
2023/08/17 09:50:14;;;;;;;10.98;5.68;;;;;;;18.31;79.51;101814.03;5009191;28;20026;-74
2023/08/17 09:52:40;;;;;;;6.88;5.00;;;;;;;18.25;80.20;101804.88;5008362;28;20094;-74
2023/08/17 09:55:09;;;;;;;7.47;4.90;;;;;;;18.38;80.52;101803.06;5008902;28;20041;-75
2023/08/17 09:57:35;;;;;;;7.70;4.97;;;;;;;18.62;79.78;101804.88;5010086;28;20026;-76
2023/08/17 10:00:00;;;;;;;8.73;5.10;;;;;;;18.61;79.41;101796.94;5001442;28;20023;-75
2023/08/17 10:02:26;;;;;;;8.25;5.20;;;;;;;18.76;78.55;101800.13;5006283;28;20029;-75
2023/08/17 10:04:52;;;;;;;7.82;5.32;;;;;;;18.76;79.47;101793.81;4991255;28;20045;-75
2023/08/17 10:07:19;;;;;;;9.85;5.40;;;;;;;18.81;78.82;101799.41;5010522;28;20021;-75
2023/08/17 10:09:47;;;;;;;9.57;5.32;;;;;;;18.71;79.07;101793.69;4990184;28;20030;-75
2023/08/17 10:12:15;;;;;;;10.77;5.30;;;;;;;18.57;79.95;101791.09;5007808;28;20060;-75
2023/08/17 10:14:46;;;;;;;7.68;5.40;;;;;;;18.54;79.84;101788.81;5006206;28;20022;-75
2023/08/17 10:17:15;;;;;;;9.32;5.40;;;;;;;18.87;79.59;101801.25;5007673;28;20593;-75
2023/08/17 10:19:51;;;;;;;8.52;5.10;;;;;;;18.82;78.80;101795.63;4973482;28;20022;-75
2023/08/17 10:22:23;;;;;;;7.75;5.80;;;;;;;18.90;78.55;101791.75;4991946;28;20478;-75
2023/08/17 10:24:48;;;;;;;8.13;5.22;;;;;;;18.96;78.25;101790.88;4991352;28;20497;-74
2023/08/17 10:27:14;;;;;;;9.43;5.60;;;;;;;19.01;78.16;101793.72;4988726;28;20157;-73
2023/08/17 10:29:39;;;;;;;8.32;5.43;;;;;;;19.01;78.76;101790.19;4982976;28;20525;-73
2023/08/17 10:32:06;;;;;;;7.72;5.80;;;;;;;18.92;77.86;101798.63;4991052;28;20026;-74
2023/08/17 10:34:31;;;;;;;7.03;5.20;;;;;;;18.98;78.91;101791.44;5008772;28;20481;-74
2023/08/17 10:36:57;;;;;;;9.40;5.40;;;;;;;18.94;77.90;101791.09;5008795;28;20037;-74
2023/08/17 10:39:23;;;;;;;6.25;5.25;;;;;;;19.00;78.67;101785.78;4974403;28;20040;-74
2023/08/17 10:41:49;;;;;;;8.02;5.28;;;;;;;19.26;78.08;101789.19;5009376;28;20029;-73
2023/08/17 10:44:14;;;;;;;6.05;4.90;;;;;;;19.48;77.38;101789.50;5008786;28;20398;-74
2023/08/17 10:46:40;;;;;;;8.57;5.70;;;;;;;19.43;76.47;101782.00;4999583;28;20034;-75
2023/08/17 10:49:23;;;;;;;9.60;5.47;;;;;;;19.67;76.55;101784.78;5003507;28;20049;-74
2023/08/17 10:52:06;;;;;;;7.03;5.30;;;;;;;19.88;74.74;101775.19;5004549;28;20108;-74
2023/08/17 10:54:42;;;;;;;7.13;5.55;;;;;;;19.91;74.79;101772.00;5008226;28;20096;-75
2023/08/17 10:57:32;;;;;;;8.90;5.93;;;;;;;20.18;73.93;101776.16;5006426;28;20048;-75
2023/08/17 11:00:13;;;;;;;6.53;5.13;;;;;;;;;;5002777;28;20098;-74
2023/08/17 11:02:39;;;;;;;7.82;5.28;;;;;;;20.48;72.18;101775.13;5007605;28;20025;-74
2023/08/17 11:05:05;;;;;;;8.00;5.22;;;;;;;20.62;71.83;101773.81;5006586;28;20113;-75
2023/08/17 11:07:40;;;;;;;7.13;5.13;;;;;;;20.52;71.45;101765.38;5008231;28;20049;-74
2023/08/17 11:10:26;;;;;;;7.28;5.25;;;;;;;20.43;72.73;101759.47;5007765;28;20045;-75
2023/08/17 11:12:56;;;;;;;6.65;4.97;;;;;;;20.30;73.13;101752.34;4998863;28;20033;-75
2023/08/17 11:15:23;;;;;;;5.97;4.90;;;;;;;20.39;72.68;101767.31;5009302;28;20482;-74
2023/08/17 11:17:48;;;;;;;7.55;5.28;;;;;;;20.29;72.21;101767.94;5009091;28;20064;-74
2023/08/17 11:20:16;;;;;;;6.65;5.30;;;;;;;20.11;73.17;101768.06;5008104;28;20022;-74
2023/08/17 11:22:41;;;;;;;6.50;5.20;;;;;;;20.01;73.61;101762.38;5007277;28;20034;-74
2023/08/17 11:25:08;;;;;;;5.82;4.97;;;;;;;19.96;74.02;101768.53;5007600;28;20630;-74
2023/08/17 11:27:33;;;;;;;7.13;5.60;;;;;;;19.96;73.69;101776.75;5007778;28;20033;-74